sensor_id;sensor_type;location;lat;lon;timestamp;P1;durP1;ratioP1;P2;durP2;ratioP2
78183;SDS011;67442;44.570;18.610;2023-06-04T00:00:46;10.88;;;3.88;;
78183;SDS011;67442;44.570;18.610;2023-06-04T00:03:12;8.40;;;4.10;;
78183;SDS011;67442;44.570;18.610;2023-06-04T00:05:39;13.00;;;4.10;;
78183;SDS011;67442;44.570;18.610;2023-06-04T00:08:06;6.30;;;4.10;;
78183;SDS011;67442;44.570;18.610;2023-06-04T00:10:34;8.30;;;4.30;;
78183;SDS011;67442;44.570;18.610;2023-06-04T00:13:00;7.80;;;3.72;;
78183;SDS011;67442;44.570;18.610;2023-06-04T00:15:27;7.95;;;4.10;;
78183;SDS011;67442;44.570;18.610;2023-06-04T00:17:55;6.40;;;3.80;;
78183;SDS011;67442;44.570;18.610;2023-06-04T00:20:22;7.13;;;4.07;;
78183;SDS011;67442;44.570;18.610;2023-06-04T00:22:49;9.85;;;4.35;;
78183;SDS011;67442;44.570;18.610;2023-06-04T00:25:17;7.95;;;3.63;;
78183;SDS011;67442;44.570;18.610;2023-06-04T00:27:47;7.35;;;4.20;;
78183;SDS011;67442;44.570;18.610;2023-06-04T00:30:15;8.27;;;4.22;;
78183;SDS011;67442;44.570;18.610;2023-06-04T00:32:42;7.88;;;4.07;;
78183;SDS011;67442;44.570;18.610;2023-06-04T00:35:10;5.82;;;3.55;;
78183;SDS011;67442;44.570;18.610;2023-06-04T00:37:37;6.30;;;3.97;;
78183;SDS011;67442;44.570;18.610;2023-06-04T00:40:08;7.63;;;3.20;;
78183;SDS011;67442;44.570;18.610;2023-06-04T00:42:36;9.43;;;4.07;;
78183;SDS011;67442;44.570;18.610;2023-06-04T00:45:03;9.57;;;3.90;;
78183;SDS011;67442;44.570;18.610;2023-06-04T00:47:35;6.32;;;3.60;;
78183;SDS011;67442;44.570;18.610;2023-06-04T00:50:02;7.97;;;3.92;;
78183;SDS011;67442;44.570;18.610;2023-06-04T00:52:29;8.25;;;3.60;;
78183;SDS011;67442;44.570;18.610;2023-06-04T00:54:56;9.70;;;3.95;;
78183;SDS011;67442;44.570;18.610;2023-06-04T00:57:29;6.88;;;3.53;;
78183;SDS011;67442;44.570;18.610;2023-06-04T00:59:55;5.70;;;3.92;;
78183;SDS011;67442;44.570;18.610;2023-06-04T01:02:23;7.32;;;4.03;;
78183;SDS011;67442;44.570;18.610;2023-06-04T01:05:37;9.07;;;3.65;;
78183;SDS011;67442;44.570;18.610;2023-06-04T01:07:42;12.52;;;3.65;;
78183;SDS011;67442;44.570;18.610;2023-06-04T01:10:12;6.40;;;3.70;;
78183;SDS011;67442;44.570;18.610;2023-06-04T01:12:42;7.32;;;3.47;;
78183;SDS011;67442;44.570;18.610;2023-06-04T01:15:09;12.48;;;3.92;;
78183;SDS011;67442;44.570;18.610;2023-06-04T01:17:38;10.55;;;4.25;;
78183;SDS011;67442;44.570;18.610;2023-06-04T01:28:01;10.63;;;3.90;;
78183;SDS011;67442;44.570;18.610;2023-06-04T01:30:32;12.63;;;3.50;;
78183;SDS011;67442;44.570;18.610;2023-06-04T01:33:00;8.02;;;3.90;;
78183;SDS011;67442;44.570;18.610;2023-06-04T01:35:28;7.00;;;3.92;;
78183;SDS011;67442;44.570;18.610;2023-06-04T01:38:14;7.07;;;3.42;;
78183;SDS011;67442;44.570;18.610;2023-06-04T01:40:42;7.07;;;3.65;;
78183;SDS011;67442;44.570;18.610;2023-06-04T01:43:13;9.98;;;3.70;;
78183;SDS011;67442;44.570;18.610;2023-06-04T01:45:41;5.57;;;3.13;;
78183;SDS011;67442;44.570;18.610;2023-06-04T01:48:12;7.25;;;3.90;;
78183;SDS011;67442;44.570;18.610;2023-06-04T01:50:39;6.03;;;3.08;;
78183;SDS011;67442;44.570;18.610;2023-06-04T01:53:06;7.70;;;3.40;;
78183;SDS011;67442;44.570;18.610;2023-06-04T01:55:34;5.50;;;3.42;;
78183;SDS011;67442;44.570;18.610;2023-06-04T01:58:00;8.65;;;3.83;;
78183;SDS011;67442;44.570;18.610;2023-06-04T02:00:28;4.35;;;3.28;;
78183;SDS011;67442;44.570;18.610;2023-06-04T02:02:59;6.95;;;3.90;;
78183;SDS011;67442;44.570;18.610;2023-06-04T02:05:27;7.80;;;3.47;;
78183;SDS011;67442;44.570;18.610;2023-06-04T02:07:54;4.15;;;3.13;;
78183;SDS011;67442;44.570;18.610;2023-06-04T02:10:22;5.50;;;3.45;;
78183;SDS011;67442;44.570;18.610;2023-06-04T02:15:29;5.97;;;3.42;;
78183;SDS011;67442;44.570;18.610;2023-06-04T02:17:58;6.10;;;3.92;;
78183;SDS011;67442;44.570;18.610;2023-06-04T02:20:47;6.00;;;3.40;;
78183;SDS011;67442;44.570;18.610;2023-06-04T02:23:16;8.50;;;4.05;;
78183;SDS011;67442;44.570;18.610;2023-06-04T02:25:45;6.82;;;3.78;;
78183;SDS011;67442;44.570;18.610;2023-06-04T02:28:12;7.95;;;3.60;;
78183;SDS011;67442;44.570;18.610;2023-06-04T02:30:44;6.53;;;3.45;;
78183;SDS011;67442;44.570;18.610;2023-06-04T02:33:30;5.28;;;3.40;;
78183;SDS011;67442;44.570;18.610;2023-06-04T02:35:57;4.72;;;3.30;;
78183;SDS011;67442;44.570;18.610;2023-06-04T02:38:25;6.40;;;3.22;;
78183;SDS011;67442;44.570;18.610;2023-06-04T02:40:53;4.10;;;3.15;;
78183;SDS011;67442;44.570;18.610;2023-06-04T02:43:24;5.20;;;3.30;;
78183;SDS011;67442;44.570;18.610;2023-06-04T02:45:51;4.45;;;3.20;;
78183;SDS011;67442;44.570;18.610;2023-06-04T02:48:18;7.93;;;3.20;;
78183;SDS011;67442;44.570;18.610;2023-06-04T02:50:46;4.72;;;3.17;;
78183;SDS011;67442;44.570;18.610;2023-06-04T02:53:13;6.18;;;3.45;;
78183;SDS011;67442;44.570;18.610;2023-06-04T02:55:41;4.35;;;3.17;;
78183;SDS011;67442;44.570;18.610;2023-06-04T02:58:08;5.93;;;3.33;;
78183;SDS011;67442;44.570;18.610;2023-06-04T03:00:35;7.72;;;3.78;;
78183;SDS011;67442;44.570;18.610;2023-06-04T03:03:02;4.65;;;3.00;;
78183;SDS011;67442;44.570;18.610;2023-06-04T03:05:30;4.70;;;3.28;;
78183;SDS011;67442;44.570;18.610;2023-06-04T03:08:00;4.38;;;3.28;;
78183;SDS011;67442;44.570;18.610;2023-06-04T03:10:28;6.50;;;3.53;;
78183;SDS011;67442;44.570;18.610;2023-06-04T03:12:56;6.10;;;3.05;;
78183;SDS011;67442;44.570;18.610;2023-06-04T03:15:23;5.20;;;3.50;;
78183;SDS011;67442;44.570;18.610;2023-06-04T03:17:50;4.85;;;3.58;;
78183;SDS011;67442;44.570;18.610;2023-06-04T03:20:18;6.03;;;3.00;;
78183;SDS011;67442;44.570;18.610;2023-06-04T03:22:52;5.25;;;3.63;;
78183;SDS011;67442;44.570;18.610;2023-06-04T03:25:18;5.05;;;3.20;;
78183;SDS011;67442;44.570;18.610;2023-06-04T03:27:46;5.55;;;3.28;;
78183;SDS011;67442;44.570;18.610;2023-06-04T03:30:13;4.63;;;2.90;;
78183;SDS011;67442;44.570;18.610;2023-06-04T03:32:41;7.63;;;3.17;;
78183;SDS011;67442;44.570;18.610;2023-06-04T03:35:09;6.35;;;3.90;;
78183;SDS011;67442;44.570;18.610;2023-06-04T03:37:36;7.13;;;3.55;;
78183;SDS011;67442;44.570;18.610;2023-06-04T03:40:07;6.43;;;3.47;;
78183;SDS011;67442;44.570;18.610;2023-06-04T03:42:34;3.92;;;2.90;;
78183;SDS011;67442;44.570;18.610;2023-06-04T03:45:01;4.63;;;3.28;;
78183;SDS011;67442;44.570;18.610;2023-06-04T03:47:29;6.00;;;3.40;;
78183;SDS011;67442;44.570;18.610;2023-06-04T03:49:56;5.00;;;3.28;;
78183;SDS011;67442;44.570;18.610;2023-06-04T03:52:23;7.85;;;3.60;;
78183;SDS011;67442;44.570;18.610;2023-06-04T03:54:52;8.25;;;3.47;;
78183;SDS011;67442;44.570;18.610;2023-06-04T03:57:20;5.32;;;3.53;;
78183;SDS011;67442;44.570;18.610;2023-06-04T03:59:47;5.80;;;3.38;;
78183;SDS011;67442;44.570;18.610;2023-06-04T04:02:14;7.30;;;3.30;;
78183;SDS011;67442;44.570;18.610;2023-06-04T04:04:42;8.60;;;3.03;;
78183;SDS011;67442;44.570;18.610;2023-06-04T04:07:08;7.18;;;3.40;;
78183;SDS011;67442;44.570;18.610;2023-06-04T04:09:36;5.47;;;3.17;;
78183;SDS011;67442;44.570;18.610;2023-06-04T04:12:03;6.38;;;3.05;;
78183;SDS011;67442;44.570;18.610;2023-06-04T04:14:31;4.95;;;3.10;;
78183;SDS011;67442;44.570;18.610;2023-06-04T04:16:58;6.63;;;2.92;;
78183;SDS011;67442;44.570;18.610;2023-06-04T04:19:25;6.43;;;3.33;;
78183;SDS011;67442;44.570;18.610;2023-06-04T04:21:54;6.38;;;3.28;;
78183;SDS011;67442;44.570;18.610;2023-06-04T04:24:24;5.93;;;3.63;;
78183;SDS011;67442;44.570;18.610;2023-06-04T04:26:51;4.78;;;3.42;;
78183;SDS011;67442;44.570;18.610;2023-06-04T04:29:21;7.90;;;3.30;;
78183;SDS011;67442;44.570;18.610;2023-06-04T04:31:50;5.60;;;3.08;;
78183;SDS011;67442;44.570;18.610;2023-06-04T04:34:17;5.57;;;3.53;;
78183;SDS011;67442;44.570;18.610;2023-06-04T04:36:47;5.55;;;3.20;;
78183;SDS011;67442;44.570;18.610;2023-06-04T04:41:48;5.97;;;2.92;;
78183;SDS011;67442;44.570;18.610;2023-06-04T04:44:15;7.50;;;3.30;;
78183;SDS011;67442;44.570;18.610;2023-06-04T04:46:42;4.15;;;3.00;;
78183;SDS011;67442;44.570;18.610;2023-06-04T04:49:09;4.38;;;3.00;;
78183;SDS011;67442;44.570;18.610;2023-06-04T04:51:36;3.60;;;2.72;;
78183;SDS011;67442;44.570;18.610;2023-06-04T04:54:04;4.95;;;3.05;;
78183;SDS011;67442;44.570;18.610;2023-06-04T04:56:34;4.75;;;3.17;;
78183;SDS011;67442;44.570;18.610;2023-06-04T04:59:01;4.13;;;2.83;;
78183;SDS011;67442;44.570;18.610;2023-06-04T05:01:32;3.70;;;2.83;;
78183;SDS011;67442;44.570;18.610;2023-06-04T05:04:00;3.65;;;2.70;;
78183;SDS011;67442;44.570;18.610;2023-06-04T05:06:27;5.00;;;2.90;;
78183;SDS011;67442;44.570;18.610;2023-06-04T05:08:54;5.55;;;3.33;;
78183;SDS011;67442;44.570;18.610;2023-06-04T05:11:22;4.72;;;3.08;;
78183;SDS011;67442;44.570;18.610;2023-06-04T05:13:49;5.78;;;2.97;;
78183;SDS011;67442;44.570;18.610;2023-06-04T05:16:16;4.32;;;2.47;;
78183;SDS011;67442;44.570;18.610;2023-06-04T05:18:45;4.32;;;2.78;;
78183;SDS011;67442;44.570;18.610;2023-06-04T05:21:12;3.38;;;2.53;;
78183;SDS011;67442;44.570;18.610;2023-06-04T05:23:40;4.20;;;3.15;;
78183;SDS011;67442;44.570;18.610;2023-06-04T05:26:07;7.05;;;3.30;;
78183;SDS011;67442;44.570;18.610;2023-06-04T05:28:35;5.40;;;3.17;;
78183;SDS011;67442;44.570;18.610;2023-06-04T05:31:04;4.53;;;3.00;;
78183;SDS011;67442;44.570;18.610;2023-06-04T05:33:36;8.55;;;3.08;;
78183;SDS011;67442;44.570;18.610;2023-06-04T05:36:04;3.53;;;2.70;;
78183;SDS011;67442;44.570;18.610;2023-06-04T05:38:31;4.13;;;2.80;;
78183;SDS011;67442;44.570;18.610;2023-06-04T05:40:58;5.40;;;2.78;;
78183;SDS011;67442;44.570;18.610;2023-06-04T05:43:29;5.00;;;2.50;;
78183;SDS011;67442;44.570;18.610;2023-06-04T05:45:57;6.45;;;3.08;;
78183;SDS011;67442;44.570;18.610;2023-06-04T05:48:24;4.25;;;2.65;;
78183;SDS011;67442;44.570;18.610;2023-06-04T05:50:51;4.85;;;2.88;;
78183;SDS011;67442;44.570;18.610;2023-06-04T05:53:19;4.85;;;2.75;;
78183;SDS011;67442;44.570;18.610;2023-06-04T05:55:50;6.07;;;2.92;;
78183;SDS011;67442;44.570;18.610;2023-06-04T05:58:18;3.85;;;2.63;;
78183;SDS011;67442;44.570;18.610;2023-06-04T06:00:45;4.57;;;2.88;;
78183;SDS011;67442;44.570;18.610;2023-06-04T06:03:14;6.35;;;2.80;;
78183;SDS011;67442;44.570;18.610;2023-06-04T06:05:45;4.25;;;2.90;;
78183;SDS011;67442;44.570;18.610;2023-06-04T06:08:13;4.95;;;2.97;;
78183;SDS011;67442;44.570;18.610;2023-06-04T06:10:40;4.30;;;3.08;;
78183;SDS011;67442;44.570;18.610;2023-06-04T06:13:07;5.30;;;3.08;;
78183;SDS011;67442;44.570;18.610;2023-06-04T06:15:35;4.47;;;3.10;;
78183;SDS011;67442;44.570;18.610;2023-06-04T06:18:02;4.47;;;2.90;;
78183;SDS011;67442;44.570;18.610;2023-06-04T06:20:31;3.80;;;2.92;;
78183;SDS011;67442;44.570;18.610;2023-06-04T06:23:05;7.40;;;3.17;;
78183;SDS011;67442;44.570;18.610;2023-06-04T06:25:33;4.57;;;3.10;;
78183;SDS011;67442;44.570;18.610;2023-06-04T06:28:03;5.72;;;3.00;;
78183;SDS011;67442;44.570;18.610;2023-06-04T06:30:31;5.45;;;2.50;;
78183;SDS011;67442;44.570;18.610;2023-06-04T06:33:02;4.65;;;2.47;;
78183;SDS011;67442;44.570;18.610;2023-06-04T06:35:29;4.70;;;2.85;;
78183;SDS011;67442;44.570;18.610;2023-06-04T06:37:56;4.50;;;2.67;;
78183;SDS011;67442;44.570;18.610;2023-06-04T06:40:23;4.05;;;2.55;;
78183;SDS011;67442;44.570;18.610;2023-06-04T06:42:51;4.63;;;2.90;;
78183;SDS011;67442;44.570;18.610;2023-06-04T06:45:22;6.32;;;2.78;;
78183;SDS011;67442;44.570;18.610;2023-06-04T06:47:49;11.18;;;3.00;;
78183;SDS011;67442;44.570;18.610;2023-06-04T06:50:16;4.75;;;2.88;;
78183;SDS011;67442;44.570;18.610;2023-06-04T06:52:43;3.53;;;2.80;;
78183;SDS011;67442;44.570;18.610;2023-06-04T06:55:11;2.88;;;2.45;;
78183;SDS011;67442;44.570;18.610;2023-06-04T06:57:38;3.38;;;2.50;;
78183;SDS011;67442;44.570;18.610;2023-06-04T07:00:09;215.73;;;33.20;;
78183;SDS011;67442;44.570;18.610;2023-06-04T07:02:41;149.07;;;29.15;;
78183;SDS011;67442;44.570;18.610;2023-06-04T07:05:08;144.85;;;28.45;;
78183;SDS011;67442;44.570;18.610;2023-06-04T07:07:36;97.32;;;21.75;;
78183;SDS011;67442;44.570;18.610;2023-06-04T07:10:03;119.63;;;23.48;;
78183;SDS011;67442;44.570;18.610;2023-06-04T07:12:32;126.80;;;24.02;;
78183;SDS011;67442;44.570;18.610;2023-06-04T07:14:59;108.90;;;22.48;;
78183;SDS011;67442;44.570;18.610;2023-06-04T07:17:27;82.47;;;18.10;;
78183;SDS011;67442;44.570;18.610;2023-06-04T07:19:54;103.18;;;20.15;;
78183;SDS011;67442;44.570;18.610;2023-06-04T07:22:22;96.53;;;20.05;;
78183;SDS011;67442;44.570;18.610;2023-06-04T07:24:49;74.72;;;17.17;;
78183;SDS011;67442;44.570;18.610;2023-06-04T07:27:16;97.85;;;17.33;;
78183;SDS011;67442;44.570;18.610;2023-06-04T07:29:44;81.57;;;17.48;;
78183;SDS011;67442;44.570;18.610;2023-06-04T07:32:11;72.95;;;14.13;;
78183;SDS011;67442;44.570;18.610;2023-06-04T07:34:38;75.97;;;14.60;;
78183;SDS011;67442;44.570;18.610;2023-06-04T07:37:06;57.78;;;13.63;;
78183;SDS011;67442;44.570;18.610;2023-06-04T07:39:35;61.47;;;14.07;;
78183;SDS011;67442;44.570;18.610;2023-06-04T07:42:02;71.47;;;14.27;;
78183;SDS011;67442;44.570;18.610;2023-06-04T07:44:30;55.15;;;12.85;;
78183;SDS011;67442;44.570;18.610;2023-06-04T07:46:57;40.90;;;11.68;;
78183;SDS011;67442;44.570;18.610;2023-06-04T07:49:24;40.60;;;11.15;;
78183;SDS011;67442;44.570;18.610;2023-06-04T07:51:55;45.58;;;11.88;;
78183;SDS011;67442;44.570;18.610;2023-06-04T07:54:23;51.88;;;12.80;;
78183;SDS011;67442;44.570;18.610;2023-06-04T07:56:51;45.15;;;11.13;;
78183;SDS011;67442;44.570;18.610;2023-06-04T07:59:22;37.97;;;10.25;;
78183;SDS011;67442;44.570;18.610;2023-06-04T08:01:49;42.53;;;10.32;;
78183;SDS011;67442;44.570;18.610;2023-06-04T08:04:19;38.75;;;11.00;;
78183;SDS011;67442;44.570;18.610;2023-06-04T08:06:46;49.17;;;10.98;;
78183;SDS011;67442;44.570;18.610;2023-06-04T08:09:15;37.38;;;10.93;;
78183;SDS011;67442;44.570;18.610;2023-06-04T08:11:42;38.92;;;10.38;;
78183;SDS011;67442;44.570;18.610;2023-06-04T08:14:13;39.65;;;10.15;;
78183;SDS011;67442;44.570;18.610;2023-06-04T08:16:40;32.53;;;9.23;;
78183;SDS011;67442;44.570;18.610;2023-06-04T08:19:11;30.02;;;8.18;;
78183;SDS011;67442;44.570;18.610;2023-06-04T08:21:39;23.73;;;7.35;;
78183;SDS011;67442;44.570;18.610;2023-06-04T08:24:08;15.98;;;6.50;;
78183;SDS011;67442;44.570;18.610;2023-06-04T08:26:36;18.38;;;6.38;;
78183;SDS011;67442;44.570;18.610;2023-06-04T08:29:03;18.13;;;6.40;;
78183;SDS011;67442;44.570;18.610;2023-06-04T08:31:30;17.63;;;6.13;;
78183;SDS011;67442;44.570;18.610;2023-06-04T08:33:57;13.15;;;6.00;;
78183;SDS011;67442;44.570;18.610;2023-06-04T08:36:24;13.90;;;6.25;;
78183;SDS011;67442;44.570;18.610;2023-06-04T08:38:51;11.38;;;5.72;;
78183;SDS011;67442;44.570;18.610;2023-06-04T08:44:29;11.05;;;4.97;;
78183;SDS011;67442;44.570;18.610;2023-06-04T08:47:01;13.73;;;5.68;;
78183;SDS011;67442;44.570;18.610;2023-06-04T08:49:30;14.07;;;6.13;;
78183;SDS011;67442;44.570;18.610;2023-06-04T08:52:05;14.32;;;5.75;;
78183;SDS011;67442;44.570;18.610;2023-06-04T08:54:36;12.68;;;5.72;;
78183;SDS011;67442;44.570;18.610;2023-06-04T08:57:03;11.60;;;5.40;;
78183;SDS011;67442;44.570;18.610;2023-06-04T08:59:31;13.85;;;5.95;;
78183;SDS011;67442;44.570;18.610;2023-06-04T09:01:59;56.90;;;12.80;;
78183;SDS011;67442;44.570;18.610;2023-06-04T09:04:25;82.18;;;16.33;;
78183;SDS011;67442;44.570;18.610;2023-06-04T09:06:53;78.35;;;16.40;;
78183;SDS011;67442;44.570;18.610;2023-06-04T09:09:25;173.18;;;29.95;;
78183;SDS011;67442;44.570;18.610;2023-06-04T09:11:55;235.00;;;43.85;;
78183;SDS011;67442;44.570;18.610;2023-06-04T09:14:30;228.05;;;47.17;;
78183;SDS011;67442;44.570;18.610;2023-06-04T09:16:57;220.02;;;47.20;;
78183;SDS011;67442;44.570;18.610;2023-06-04T09:19:25;243.40;;;47.00;;
78183;SDS011;67442;44.570;18.610;2023-06-04T09:22:01;268.23;;;47.60;;
78183;SDS011;67442;44.570;18.610;2023-06-04T09:24:39;212.35;;;39.20;;
78183;SDS011;67442;44.570;18.610;2023-06-04T09:27:19;192.25;;;39.92;;
78183;SDS011;67442;44.570;18.610;2023-06-04T09:29:57;168.27;;;33.70;;
78183;SDS011;67442;44.570;18.610;2023-06-04T09:32:26;170.18;;;35.08;;
78183;SDS011;67442;44.570;18.610;2023-06-04T09:35:10;166.00;;;35.00;;
78183;SDS011;67442;44.570;18.610;2023-06-04T09:38:04;164.18;;;34.50;;
78183;SDS011;67442;44.570;18.610;2023-06-04T09:40:34;152.40;;;33.65;;
78183;SDS011;67442;44.570;18.610;2023-06-04T09:43:06;151.82;;;34.00;;
78183;SDS011;67442;44.570;18.610;2023-06-04T09:45:33;160.23;;;33.25;;
78183;SDS011;67442;44.570;18.610;2023-06-04T09:48:01;162.80;;;34.63;;
78183;SDS011;67442;44.570;18.610;2023-06-04T09:50:31;138.73;;;33.25;;
78183;SDS011;67442;44.570;18.610;2023-06-04T09:52:59;141.00;;;33.50;;
78183;SDS011;67442;44.570;18.610;2023-06-04T09:55:27;154.68;;;34.85;;
78183;SDS011;67442;44.570;18.610;2023-06-04T09:57:54;135.18;;;31.20;;
78183;SDS011;67442;44.570;18.610;2023-06-04T10:00:22;132.02;;;31.98;;
78183;SDS011;67442;44.570;18.610;2023-06-04T10:02:51;137.15;;;31.90;;
78183;SDS011;67442;44.570;18.610;2023-06-04T10:05:23;127.55;;;31.13;;
78183;SDS011;67442;44.570;18.610;2023-06-04T10:07:52;125.05;;;31.73;;
78183;SDS011;67442;44.570;18.610;2023-06-04T10:10:26;130.93;;;30.45;;
78183;SDS011;67442;44.570;18.610;2023-06-04T10:12:54;131.98;;;30.48;;
78183;SDS011;67442;44.570;18.610;2023-06-04T10:15:28;114.43;;;31.38;;
78183;SDS011;67442;44.570;18.610;2023-06-04T10:17:57;139.00;;;30.48;;
78183;SDS011;67442;44.570;18.610;2023-06-04T10:20:25;114.95;;;29.75;;
78183;SDS011;67442;44.570;18.610;2023-06-04T10:22:53;111.95;;;29.52;;
78183;SDS011;67442;44.570;18.610;2023-06-04T10:25:21;125.32;;;30.90;;
78183;SDS011;67442;44.570;18.610;2023-06-04T10:27:52;118.45;;;29.33;;
78183;SDS011;67442;44.570;18.610;2023-06-04T10:30:19;115.53;;;29.00;;
78183;SDS011;67442;44.570;18.610;2023-06-04T10:32:46;123.28;;;29.70;;
78183;SDS011;67442;44.570;18.610;2023-06-04T10:35:17;119.60;;;30.38;;
78183;SDS011;67442;44.570;18.610;2023-06-04T10:38:03;123.68;;;29.40;;
78183;SDS011;67442;44.570;18.610;2023-06-04T10:40:31;108.32;;;28.70;;
78183;SDS011;67442;44.570;18.610;2023-06-04T10:43:04;111.63;;;28.88;;
78183;SDS011;67442;44.570;18.610;2023-06-04T10:45:31;103.35;;;27.92;;
78183;SDS011;67442;44.570;18.610;2023-06-04T10:48:02;120.43;;;28.77;;
78183;SDS011;67442;44.570;18.610;2023-06-04T10:50:34;111.78;;;27.90;;
78183;SDS011;67442;44.570;18.610;2023-06-04T10:53:01;108.15;;;28.45;;
78183;SDS011;67442;44.570;18.610;2023-06-04T10:55:42;124.18;;;29.98;;
78183;SDS011;67442;44.570;18.610;2023-06-04T10:58:10;112.53;;;28.13;;
78183;SDS011;67442;44.570;18.610;2023-06-04T11:00:38;105.47;;;26.52;;
78183;SDS011;67442;44.570;18.610;2023-06-04T11:03:07;108.10;;;27.67;;
78183;SDS011;67442;44.570;18.610;2023-06-04T11:05:36;101.28;;;27.00;;
78183;SDS011;67442;44.570;18.610;2023-06-04T11:08:11;102.53;;;28.38;;
78183;SDS011;67442;44.570;18.610;2023-06-04T11:10:39;100.75;;;27.55;;
78183;SDS011;67442;44.570;18.610;2023-06-04T11:13:11;105.65;;;27.77;;
78183;SDS011;67442;44.570;18.610;2023-06-04T11:15:39;90.15;;;27.08;;
78183;SDS011;67442;44.570;18.610;2023-06-04T11:18:14;95.50;;;26.80;;
78183;SDS011;67442;44.570;18.610;2023-06-04T11:20:49;99.88;;;27.27;;
78183;SDS011;67442;44.570;18.610;2023-06-04T11:23:23;97.57;;;26.42;;
78183;SDS011;67442;44.570;18.610;2023-06-04T11:25:52;102.05;;;26.88;;
78183;SDS011;67442;44.570;18.610;2023-06-04T11:28:19;94.32;;;26.90;;
78183;SDS011;67442;44.570;18.610;2023-06-04T11:30:56;90.78;;;25.48;;
78183;SDS011;67442;44.570;18.610;2023-06-04T11:33:29;96.38;;;25.95;;
78183;SDS011;67442;44.570;18.610;2023-06-04T11:35:55;96.43;;;26.60;;
78183;SDS011;67442;44.570;18.610;2023-06-04T11:38:27;92.97;;;25.20;;
78183;SDS011;67442;44.570;18.610;2023-06-04T11:40:59;86.70;;;25.20;;
78183;SDS011;67442;44.570;18.610;2023-06-04T11:43:27;78.85;;;24.38;;
78183;SDS011;67442;44.570;18.610;2023-06-04T11:45:55;87.47;;;24.90;;
78183;SDS011;67442;44.570;18.610;2023-06-04T11:48:22;92.45;;;25.65;;
78183;SDS011;67442;44.570;18.610;2023-06-04T11:50:49;94.05;;;26.17;;
78183;SDS011;67442;44.570;18.610;2023-06-04T11:53:20;91.32;;;24.30;;
78183;SDS011;67442;44.570;18.610;2023-06-04T11:55:48;81.25;;;25.10;;
78183;SDS011;67442;44.570;18.610;2023-06-04T11:58:15;78.85;;;24.52;;
78183;SDS011;67442;44.570;18.610;2023-06-04T12:00:43;93.93;;;25.30;;
78183;SDS011;67442;44.570;18.610;2023-06-04T12:03:10;84.55;;;23.95;;
78183;SDS011;67442;44.570;18.610;2023-06-04T12:05:38;84.95;;;25.33;;
78183;SDS011;67442;44.570;18.610;2023-06-04T12:08:05;74.28;;;23.27;;
78183;SDS011;67442;44.570;18.610;2023-06-04T12:10:41;82.55;;;24.15;;
78183;SDS011;67442;44.570;18.610;2023-06-04T12:13:08;77.63;;;23.83;;
78183;SDS011;67442;44.570;18.610;2023-06-04T12:15:39;75.78;;;24.02;;
78183;SDS011;67442;44.570;18.610;2023-06-04T12:18:10;76.18;;;22.23;;
78183;SDS011;67442;44.570;18.610;2023-06-04T12:20:38;75.38;;;24.17;;
78183;SDS011;67442;44.570;18.610;2023-06-04T12:23:07;76.97;;;22.23;;
78183;SDS011;67442;44.570;18.610;2023-06-04T12:25:49;78.43;;;23.42;;
78183;SDS011;67442;44.570;18.610;2023-06-04T12:28:17;73.90;;;22.88;;
78183;SDS011;67442;44.570;18.610;2023-06-04T12:30:48;80.82;;;22.30;;
78183;SDS011;67442;44.570;18.610;2023-06-04T12:33:19;72.15;;;22.50;;
78183;SDS011;67442;44.570;18.610;2023-06-04T12:35:46;71.70;;;23.35;;
78183;SDS011;67442;44.570;18.610;2023-06-04T12:38:17;76.90;;;23.17;;
78183;SDS011;67442;44.570;18.610;2023-06-04T12:40:45;69.97;;;21.70;;
78183;SDS011;67442;44.570;18.610;2023-06-04T12:43:12;82.25;;;24.63;;
78183;SDS011;67442;44.570;18.610;2023-06-04T12:45:40;73.85;;;22.00;;
78183;SDS011;67442;44.570;18.610;2023-06-04T12:48:07;64.60;;;21.55;;
78183;SDS011;67442;44.570;18.610;2023-06-04T12:50:35;76.25;;;21.95;;
78183;SDS011;67442;44.570;18.610;2023-06-04T12:53:02;70.57;;;21.35;;
78183;SDS011;67442;44.570;18.610;2023-06-04T12:55:29;78.15;;;22.65;;
78183;SDS011;67442;44.570;18.610;2023-06-04T12:57:57;65.50;;;20.65;;
78183;SDS011;67442;44.570;18.610;2023-06-04T13:00:26;59.70;;;19.20;;
78183;SDS011;67442;44.570;18.610;2023-06-04T13:02:53;67.05;;;19.35;;
78183;SDS011;67442;44.570;18.610;2023-06-04T13:05:21;53.60;;;19.05;;
78183;SDS011;67442;44.570;18.610;2023-06-04T13:07:52;61.35;;;18.27;;
78183;SDS011;67442;44.570;18.610;2023-06-04T13:10:19;58.00;;;18.52;;
78183;SDS011;67442;44.570;18.610;2023-06-04T13:12:50;63.50;;;17.52;;
78183;SDS011;67442;44.570;18.610;2023-06-04T13:15:22;50.63;;;15.77;;
78183;SDS011;67442;44.570;18.610;2023-06-04T13:17:49;55.30;;;16.63;;
78183;SDS011;67442;44.570;18.610;2023-06-04T13:20:16;57.75;;;15.07;;
78183;SDS011;67442;44.570;18.610;2023-06-04T13:22:44;52.25;;;16.15;;
78183;SDS011;67442;44.570;18.610;2023-06-04T13:25:15;56.15;;;16.08;;
78183;SDS011;67442;44.570;18.610;2023-06-04T13:27:42;56.97;;;16.35;;
78183;SDS011;67442;44.570;18.610;2023-06-04T13:30:10;47.33;;;15.60;;
78183;SDS011;67442;44.570;18.610;2023-06-04T13:32:39;55.13;;;15.85;;
78183;SDS011;67442;44.570;18.610;2023-06-04T13:35:06;53.00;;;14.35;;
78183;SDS011;67442;44.570;18.610;2023-06-04T13:37:34;52.70;;;15.27;;
78183;SDS011;67442;44.570;18.610;2023-06-04T13:40:01;36.78;;;13.07;;
78183;SDS011;67442;44.570;18.610;2023-06-04T13:42:29;45.50;;;13.20;;
78183;SDS011;67442;44.570;18.610;2023-06-04T13:44:56;37.78;;;12.18;;
78183;SDS011;67442;44.570;18.610;2023-06-04T13:47:24;41.97;;;12.23;;
78183;SDS011;67442;44.570;18.610;2023-06-04T13:49:52;37.35;;;11.48;;
78183;SDS011;67442;44.570;18.610;2023-06-04T13:52:19;38.10;;;11.20;;
78183;SDS011;67442;44.570;18.610;2023-06-04T13:54:51;33.30;;;11.82;;
78183;SDS011;67442;44.570;18.610;2023-06-04T13:57:18;27.75;;;10.10;;
78183;SDS011;67442;44.570;18.610;2023-06-04T13:59:45;32.90;;;11.45;;
78183;SDS011;67442;44.570;18.610;2023-06-04T14:02:12;24.92;;;10.23;;
78183;SDS011;67442;44.570;18.610;2023-06-04T14:04:39;37.45;;;11.80;;
78183;SDS011;67442;44.570;18.610;2023-06-04T14:07:06;30.10;;;10.82;;
78183;SDS011;67442;44.570;18.610;2023-06-04T14:09:33;30.75;;;11.65;;
78183;SDS011;67442;44.570;18.610;2023-06-04T14:12:03;26.70;;;9.80;;
78183;SDS011;67442;44.570;18.610;2023-06-04T14:14:31;35.83;;;11.55;;
78183;SDS011;67442;44.570;18.610;2023-06-04T14:17:05;27.08;;;10.25;;
78183;SDS011;67442;44.570;18.610;2023-06-04T14:19:33;28.20;;;9.65;;
78183;SDS011;67442;44.570;18.610;2023-06-04T14:22:03;30.58;;;10.75;;
78183;SDS011;67442;44.570;18.610;2023-06-04T14:24:31;29.95;;;10.90;;
78183;SDS011;67442;44.570;18.610;2023-06-04T14:26:58;28.38;;;10.15;;
78183;SDS011;67442;44.570;18.610;2023-06-04T14:29:25;30.00;;;10.45;;
78183;SDS011;67442;44.570;18.610;2023-06-04T14:31:53;30.15;;;10.23;;
78183;SDS011;67442;44.570;18.610;2023-06-04T14:34:24;33.25;;;9.70;;
78183;SDS011;67442;44.570;18.610;2023-06-04T14:36:51;35.58;;;10.48;;
78183;SDS011;67442;44.570;18.610;2023-06-04T14:39:18;28.70;;;9.73;;
78183;SDS011;67442;44.570;18.610;2023-06-04T14:41:46;27.80;;;10.00;;
78183;SDS011;67442;44.570;18.610;2023-06-04T14:44:18;27.70;;;9.65;;